createdAt,value
2019-02-24T00:00:32.750Z,17.47
2019-02-24T00:04:53.566Z,20.50
2019-02-24T00:09:14.404Z,41.87
2019-02-24T00:13:35.268Z,32.43
2019-02-24T00:17:56.116Z,25.10
2019-02-24T00:22:10.247Z,25.43
2019-02-24T00:26:25.020Z,23.17
2019-02-24T00:30:25.967Z,20.93
2019-02-24T00:34:46.850Z,23.03
2019-02-24T00:39:07.697Z,18.67
2019-02-24T00:43:08.678Z,20.57
2019-02-24T00:47:29.442Z,19.57
2019-02-24T00:51:50.170Z,18.17
2019-02-24T00:56:10.960Z,15.67
2019-02-24T01:00:32.967Z,14.73
2019-02-24T01:04:53.756Z,13.83
2019-02-24T01:09:14.621Z,12.87
2019-02-24T01:13:35.365Z,11.80
2019-02-24T01:17:56.127Z,10.97
2019-02-24T01:22:16.820Z,8.37
2019-02-24T01:26:30.982Z,8.30
2019-02-24T01:30:45.691Z,13.47
2019-02-24T01:34:47.442Z,13.07
2019-02-24T01:39:11.699Z,10.40
2019-02-24T01:43:32.878Z,10.13
2019-02-24T01:47:53.725Z,10.53
2019-02-24T01:52:14.472Z,9.07
2019-02-24T01:56:35.223Z,9.63
2019-02-24T02:00:56.054Z,8.93
2019-02-24T02:05:16.808Z,14.03
2019-02-24T02:09:37.658Z,15.17
2019-02-24T02:13:58.403Z,13.90
2019-02-24T02:18:19.160Z,15.27
2019-02-24T02:22:40.088Z,18.33
2019-02-24T02:26:54.859Z,16.67
2019-02-24T02:31:09.679Z,16.10
2019-02-24T02:35:25.210Z,13.70
2019-02-24T02:39:39.782Z,13.50
2019-02-24T02:43:54.348Z,13.77
2019-02-24T02:48:08.885Z,14.20
2019-02-24T02:52:23.514Z,14.37
2019-02-24T02:56:24.504Z,13.87
2019-02-24T03:00:45.382Z,14.70
2019-02-24T03:05:06.157Z,12.83
2019-02-24T03:13:35.806Z,12.60
2019-02-24T03:17:56.653Z,12.77
2019-02-24T03:21:57.512Z,14.80
2019-02-24T03:26:11.530Z,13.97
2019-02-24T03:30:25.945Z,14.03
2019-02-24T03:34:40.603Z,14.13
2019-02-24T03:38:55.165Z,17.03
2019-02-24T03:42:56.080Z,13.40
2019-02-24T03:47:16.813Z,16.20
2019-02-24T03:51:37.744Z,13.83
2019-02-24T03:55:58.519Z,13.40
2019-02-24T04:00:00.381Z,12.13
2019-02-24T04:04:21.232Z,12.90
2019-02-24T04:08:42.045Z,11.97
2019-02-24T04:13:02.767Z,10.83
2019-02-24T04:17:23.522Z,6.97
2019-02-24T04:21:24.425Z,8.67
2019-02-24T04:25:38.706Z,8.73
2019-02-24T04:29:53.356Z,11.03
2019-02-24T04:34:07.897Z,13.17
2019-02-24T04:38:22.469Z,12.93
2019-02-24T04:42:37.218Z,10.43
2019-02-24T04:46:51.877Z,11.90
2019-02-24T04:51:06.431Z,12.80
2019-02-24T04:55:21.150Z,14.47
2019-02-24T04:59:35.793Z,17.80
2019-02-24T05:03:50.417Z,14.00
2019-02-24T05:08:04.945Z,13.63
2019-02-24T05:12:19.188Z,13.23
2019-02-24T05:16:33.923Z,12.37
2019-02-24T05:20:48.456Z,12.23
2019-02-24T05:25:03.097Z,12.57
2019-02-24T05:29:17.741Z,15.83
2019-02-24T05:33:32.404Z,14.83
2019-02-24T05:37:46.679Z,12.93
2019-02-24T05:42:01.168Z,13.10
2019-02-24T05:46:02.142Z,15.67
2019-02-24T05:50:22.895Z,15.10
2019-02-24T05:54:23.796Z,14.17
2019-02-24T05:58:24.769Z,15.17
2019-02-24T06:02:25.634Z,13.30
2019-02-24T06:06:46.393Z,14.63
2019-02-24T06:11:07.183Z,13.23
2019-02-24T06:15:28.021Z,11.70
2019-02-24T06:19:48.809Z,12.27
2019-02-24T06:24:09.591Z,12.93
2019-02-24T06:28:30.707Z,12.20
2019-02-24T06:32:51.808Z,10.23
2019-02-24T06:37:12.675Z,13.27
2019-02-24T06:41:33.520Z,13.57
2019-02-24T06:45:54.255Z,14.47
2019-02-24T06:50:15.012Z,13.67
2019-02-24T06:54:35.834Z,13.47
2019-02-24T06:58:56.684Z,12.00
2019-02-24T07:03:17.431Z,11.17
2019-02-24T07:07:38.208Z,11.30
2019-02-24T07:11:59.150Z,10.43
2019-02-24T07:16:20.008Z,11.50
2019-02-24T07:20:40.862Z,10.00
2019-02-24T07:24:55.338Z,8.70
2019-02-24T07:29:10.023Z,8.80
2019-02-24T07:33:24.815Z,9.27
2019-02-24T07:37:39.566Z,8.60
2019-02-24T07:41:54.089Z,9.40
2019-02-24T07:46:08.693Z,9.07
2019-02-24T07:50:22.671Z,8.63
2019-02-24T07:54:36.544Z,8.73
2019-02-24T07:58:51.118Z,10.53
2019-02-24T08:03:05.803Z,8.50
2019-02-24T08:07:19.758Z,10.77
2019-02-24T08:11:34.087Z,13.50
2019-02-24T08:15:48.347Z,12.90
2019-02-24T08:20:02.837Z,11.10
2019-02-24T08:24:17.431Z,8.93
2019-02-24T08:28:32.017Z,6.10
2019-02-24T08:32:46.703Z,7.13
2019-02-24T08:37:01.119Z,8.00
2019-02-24T08:41:15.731Z,6.97
2019-02-24T08:45:30.540Z,6.47
2019-02-24T08:49:44.859Z,5.87
2019-02-24T08:53:59.284Z,6.67
2019-02-24T08:58:13.822Z,6.33
2019-02-24T09:02:28.427Z,6.27
2019-02-24T09:06:43.076Z,6.07
2019-02-24T09:10:57.466Z,6.53
2019-02-24T09:15:12.168Z,6.17
2019-02-24T09:19:26.887Z,6.57
2019-02-24T09:23:41.505Z,6.80
2019-02-24T09:27:56.458Z,6.33
2019-02-24T09:32:10.539Z,5.57
2019-02-24T09:36:25.115Z,6.33
2019-02-24T09:40:41.857Z,6.40
2019-02-24T09:44:56.226Z,6.47
2019-02-24T09:49:13.691Z,6.07
2019-02-24T09:53:15.012Z,5.07
2019-02-24T09:57:37.121Z,7.00
2019-02-24T10:01:58.664Z,7.47
2019-02-24T10:06:19.405Z,4.80
2019-02-24T10:10:42.882Z,5.27
2019-02-24T10:15:37.908Z,6.73
2019-02-24T10:24:17.538Z,6.10
2019-02-24T10:28:31.711Z,5.43
2019-02-24T10:32:46.342Z,4.47
2019-02-24T10:37:01.114Z,5.23
2019-02-24T10:41:15.941Z,4.53
2019-02-24T10:45:30.474Z,6.20
2019-02-24T10:49:45.099Z,5.03
2019-02-24T10:53:46.082Z,4.93
2019-02-24T10:57:46.947Z,5.23
2019-02-24T11:02:07.834Z,4.70
2019-02-24T11:06:28.807Z,5.57
2019-02-24T11:10:49.881Z,4.33
2019-02-24T11:15:11.356Z,4.97
2019-02-24T11:19:12.552Z,4.60
2019-02-24T11:23:33.377Z,4.00
2019-02-24T11:27:47.787Z,6.00
2019-02-24T11:32:03.826Z,4.40
2019-02-24T11:36:04.747Z,4.37
2019-02-24T11:40:26.131Z,3.80
2019-02-24T11:44:39.028Z,4.43
2019-02-24T11:48:49.801Z,5.20
2019-02-24T11:53:10.531Z,6.53
2019-02-24T11:57:31.320Z,5.57
2019-02-24T12:01:52.160Z,4.50
2019-02-24T12:06:12.896Z,4.23
2019-02-24T12:10:33.756Z,4.03
2019-02-24T12:14:54.510Z,4.43
2019-02-24T12:19:15.619Z,4.70
2019-02-24T12:23:30.321Z,4.57
2019-02-24T12:27:47.360Z,5.00
2019-02-24T12:32:01.481Z,4.57
2019-02-24T12:36:16.184Z,5.30
2019-02-24T12:40:30.745Z,4.50
2019-02-24T12:44:45.303Z,4.03
2019-02-24T12:48:59.238Z,3.77
2019-02-24T12:53:13.575Z,6.83
2019-02-24T12:57:29.092Z,4.00
2019-02-24T13:01:44.300Z,3.37
2019-02-24T13:05:59.030Z,3.80
2019-02-24T13:10:13.596Z,4.57
2019-02-24T13:14:14.484Z,3.60
2019-02-24T13:18:36.817Z,2.93
2019-02-24T13:22:58.157Z,3.70
2019-02-24T13:27:11.990Z,2.93
2019-02-24T13:31:26.610Z,3.43
2019-02-24T13:35:40.733Z,2.87
2019-02-24T13:39:55.010Z,3.97
2019-02-24T13:44:09.589Z,3.60
2019-02-24T13:48:24.190Z,4.20
2019-02-24T13:52:38.880Z,4.13
2019-02-24T13:56:53.494Z,3.43
2019-02-24T14:01:08.204Z,3.80
2019-02-24T14:05:22.445Z,2.80
2019-02-24T14:09:36.999Z,2.87
2019-02-24T14:13:51.557Z,2.67
2019-02-24T14:18:05.995Z,2.63
2019-02-24T14:22:20.390Z,2.43
2019-02-24T14:26:35.261Z,3.93
2019-02-24T14:30:49.829Z,3.40
2019-02-24T14:35:04.486Z,2.83
2019-02-24T14:39:19.022Z,3.30
2019-02-24T14:43:20.035Z,3.90
2019-02-24T14:47:40.811Z,3.60
2019-02-24T14:52:01.530Z,4.37
2019-02-24T14:56:22.311Z,3.37
2019-02-24T15:00:43.180Z,3.03
2019-02-24T15:05:25.751Z,5.07
2019-02-24T15:09:46.570Z,4.90
2019-02-24T15:13:47.555Z,6.23
2019-02-24T15:18:08.394Z,6.17
2019-02-24T15:22:29.179Z,5.70
2019-02-24T15:26:43.923Z,6.67
2019-02-24T15:30:58.570Z,5.77
2019-02-24T15:35:13.178Z,5.70
2019-02-24T15:39:26.939Z,6.07
2019-02-24T15:43:27.817Z,6.47
2019-02-24T15:47:48.800Z,6.40
2019-02-24T15:52:10.223Z,9.17
2019-02-24T15:56:11.240Z,10.00
2019-02-24T16:00:31.984Z,6.87
2019-02-24T16:04:52.699Z,6.23
2019-02-24T16:09:13.601Z,7.13
2019-02-24T16:13:34.429Z,6.07
2019-02-24T16:17:55.317Z,6.30
2019-02-24T16:22:16.246Z,5.67
2019-02-24T16:26:30.281Z,5.37
2019-02-24T16:30:44.849Z,6.07
2019-02-24T16:34:45.738Z,6.43
2019-02-24T16:39:06.659Z,6.20
2019-02-24T16:43:27.613Z,6.00
2019-02-24T16:47:48.374Z,7.10
2019-02-24T16:52:09.164Z,8.23
2019-02-24T16:56:30.013Z,7.67
2019-02-24T17:00:50.884Z,7.03
2019-02-24T17:05:12.192Z,7.63
2019-02-24T17:09:13.088Z,10.57
2019-02-24T17:13:13.963Z,8.20
2019-02-24T17:17:34.704Z,9.63
2019-02-24T17:21:55.440Z,9.63
2019-02-24T17:26:09.967Z,15.03
2019-02-24T17:30:24.404Z,12.60
2019-02-24T17:34:39.139Z,21.83
2019-02-24T17:38:53.826Z,13.47
2019-02-24T17:43:08.522Z,7.00
2019-02-24T17:47:23.211Z,7.75
2019-02-24T17:51:37.728Z,6.37
2019-02-24T17:55:51.519Z,6.60
2019-02-24T18:00:06.347Z,8.73
2019-02-24T18:04:21.036Z,6.50
2019-02-24T18:08:28.062Z,5.50
2019-02-24T18:12:44.817Z,5.57
2019-02-24T18:17:05.678Z,8.33
2019-02-24T18:21:26.545Z,9.83
2019-02-24T18:25:41.304Z,9.47
2019-02-24T18:29:55.952Z,9.87
2019-02-24T18:34:10.103Z,9.03
2019-02-24T18:38:24.153Z,9.63
2019-02-24T18:42:39.545Z,8.73
2019-02-24T18:46:54.427Z,14.57
2019-02-24T18:50:55.365Z,11.75
2019-02-24T18:55:16.254Z,16.70
2019-02-24T18:59:37.044Z,15.63
2019-02-24T19:03:38.035Z,18.93
2019-02-24T19:07:58.862Z,18.47
2019-02-24T19:12:19.898Z,21.10
2019-02-24T19:16:40.694Z,26.40
2019-02-24T19:21:01.553Z,21.53
2019-02-24T19:25:16.327Z,13.60
2019-02-24T19:29:31.203Z,19.53
2019-02-24T19:33:45.728Z,15.27
2019-02-24T19:37:46.919Z,8.13
2019-02-24T19:46:36.119Z,12.43
2019-02-24T19:50:56.988Z,10.57
2019-02-24T19:55:17.828Z,10.03
2019-02-24T19:59:38.601Z,16.90
2019-02-24T20:03:39.591Z,19.63
2019-02-24T20:07:40.605Z,16.37
2019-02-24T20:12:01.483Z,20.60
2019-02-24T20:16:22.316Z,39.03
2019-02-24T20:20:43.092Z,22.40
2019-02-24T20:24:57.812Z,21.10
2019-02-24T20:29:12.595Z,24.73
2019-02-24T20:33:27.336Z,25.60
2019-02-24T20:37:42.064Z,19.53
2019-02-24T20:41:43.067Z,19.93
2019-02-24T20:46:04.076Z,16.47
2019-02-24T20:50:26.222Z,15.90
2019-02-24T20:54:47.155Z,14.33
2019-02-24T20:59:08.112Z,11.43
2019-02-24T21:03:08.992Z,10.50
2019-02-24T21:07:29.767Z,12.53
2019-02-24T21:11:50.631Z,19.03
2019-02-24T21:16:11.379Z,20.07
2019-02-24T21:20:32.588Z,24.43
2019-02-24T21:24:33.595Z,23.80
2019-02-24T21:28:48.942Z,23.93
2019-02-24T21:32:50.102Z,18.90
2019-02-24T21:37:10.861Z,17.13
2019-02-24T21:41:31.780Z,20.07
2019-02-24T21:45:52.601Z,21.50
2019-02-24T21:50:14.222Z,22.40
2019-02-24T21:54:35.381Z,22.73
2019-02-24T21:58:56.134Z,21.90
2019-02-24T22:03:16.851Z,18.00
2019-02-24T22:07:37.617Z,19.67
2019-02-24T22:11:58.605Z,14.47
2019-02-24T22:16:19.673Z,14.53
2019-02-24T22:21:02.196Z,15.47
2019-02-24T22:25:15.933Z,17.53
2019-02-24T22:29:29.697Z,19.37
2019-02-24T22:33:44.296Z,19.20
2019-02-24T22:37:58.889Z,19.30
2019-02-24T22:42:13.056Z,18.63
2019-02-24T22:46:27.696Z,20.10
2019-02-24T22:50:42.099Z,19.17
2019-02-24T22:54:56.646Z,20.20
2019-02-24T22:59:10.990Z,20.83
2019-02-24T23:03:25.732Z,17.63
2019-02-24T23:07:26.734Z,18.33
2019-02-24T23:11:47.626Z,17.10
2019-02-24T23:16:08.579Z,17.23
2019-02-24T23:20:09.680Z,18.03
2019-02-24T23:24:24.530Z,20.00
2019-02-24T23:28:39.090Z,18.57
2019-02-24T23:32:53.209Z,18.03
2019-02-24T23:37:07.845Z,18.70
2019-02-24T23:41:22.545Z,18.13
2019-02-24T23:45:37.304Z,19.20
2019-02-24T23:49:51.883Z,27.50
2019-02-24T23:54:06.494Z,24.27
2019-02-24T23:58:20.321Z,18.40
